Quake List 2016

List of significant Earthquakes Magnitude 6.0+ (Latest First) Based on USGS and EMSC Listings The heading link takes you to the USGS pages for the event. The links in the list for USGS take you to the relevant page in this blog which shows the details of the event. The links for EMSC take you to the event on the EMSC site. ‡ against a month name means checked against ANSS.

Jan Feb Mar Apr May Jun
Jul Aug Sep Oct Nov Dec

Changed magnitudes are marked with ↓ or ↑ and the details are in italics with the changed value e.g. 6.0 in bold. {!}=Currently only Mag 6+ on one provider where other providers are under Mag 6. This listing page is NOT an instant update page and it could be a week or more before details appear here especially if the initial determination is uncertain. Normally this list is updated once a week on a Sunday. You will however find any ‘missing’ quake in the blog posts. [→] indicates this opens in a new tab/page.

Year To Date Counts [USGS]: Mag 6: 90 Mag 7: 11 Mag 8: 0 Mag 9: 0
Year To Date Counts [EMSC]: Mag 6: 101 Mag 7: 11 Mag 8: 0 Mag 9: 0


November 2016

USGS Listing

Nov 2016 Counts [USGS]: Mag 6: 1 Mag 7: 0 Mag 8: 0 Mag 9: 0

Date/Time UTC,Latitude,Longitude,Magnitude,Depth(Km),Location
2016-11-04 16:20:43, -35.103, -70.996, 6.4, 90.7, Chile-Argentina Border Region (127)


EMSC Listing

Nov 2016 Counts [EMSC]: Mag 6: 2 Mag 7: 0 Mag 8: 0 Mag 9: 0

Date/Time UTC,Latitude,Longitude,Magnitude,Depth(Km),Location
2016-11-04 16:20:45, -35.010, -70.980, 6.3, 90.0, Maule. Chile
2016-11-01 19:03:28, -6.090, 148.670, 6.0, 40.0, New Britain Region. P.N.G.

October 2016

USGS Listing

Oct 2016 Counts [USGS]: Mag 6: 7 Mag 7: 0 Mag 8: 0 Mag 9: 0

Date/Time UTC,Latitude,Longitude,Magnitude,Depth(Km),Location
2016-10-30 06:40:19, 42.854, 13.088, 6.6, 10.0, Central Italy (381)
2016-10-26 19:18:08, 42.934, 13.043, 6.1, 10.0, Central Italy (381)
↑  2016-10-26 05:19:50, -15.540, -174.872, 6.1, 10.0, Tonga Isls. (173)
2016-10-21 05:07:23, 35.357, 133.801, 6.2, 10.0, Western Honshu. Japan (232)
2016-10-19 00:26:01, -4.862, 108.162, 6.6, 614.0, Java Sea (275)
2016-10-17 06:14:58, -6.052, 148.861, 6.9, 35.0, New Britain Region. P.N.G. (192)
2016-10-15 08:03:38, -4.262, 150.406, 6.4, 446.6, New Britain Region. P.N.G. (192)


EMSC Listing

Oct 2016 Counts [EMSC]: Mag 6: 10 Mag 7: 0 Mag 8: 0 Mag 9: 0

Date/Time UTC,Latitude,Longitude,Magnitude,Depth(Km),Location
2016-10-30 06:40:18, 42.840, 13.110, 6.5, 10.0, Central Italy
2016-10-27 20:32:55, -33.760, -72.520, 6.0, 14.0, Offshore Valparaiso. Chile
2016-10-27 11:53:16, 53.630, -163.300, 6.0, 10.0, Unimak Island Region. Alaska
2016-10-26 19:18:07, 42.920, 13.130, 6.1, 8.0, Central Italy
2016-10-26 05:19:50, -15.520, -174.950, 6.0, 10.0, Tonga
2016-10-21 05:07:23, 35.370, 133.730, 6.2, 10.0, Western Honshu. Japan
2016-10-19 00:26:02, -4.920, 108.240, 6.6, 645.0, Java Sea
2016-10-18 16:36:40, -23.360, -179.900, 6.0, 540.0, South Of Fiji Isls.
2016-10-17 06:14:57, -5.920, 148.600, 6.8, 40.0, New Britain Region. P.N.G.
2016-10-15 08:03:39, -4.270, 150.380, 6.3, 462.0, New Britain Region. P.N.G.

September 2016

USGS Listing

Sept 2016 Counts [USGS]: Mag 6: 12 Mag 7: 1 Mag 8: 0 Mag 9: 0

Date/Time UTC,Latitude,Longitude,Magnitude,Depth(Km),Location
2016-09-26 05:19:58, 27.470, 128.559, 6.0, 40.2, Ryukyu Isls. Japan (238)
2016-09-24 21:28:41, -19.781, -178.244, 6.9, 596.4, Fiji Isls. Region (181)
2016-09-24 21:07:13, -18.170, -174.984, 6.4, 202.0, Tonga Isls. (173)
2016-09-23 22:53:10, 6.572, 126.492, 6.3, 65.0, Mindanao. Philippines (259)
2016-09-23 00:14:34, 34.461, 141.636, 6.2, 10.0, Off E. Coast Of Honshu. Japan (229)
2016-09-20 16:21:16, 30.502, 142.080, 6.1, 9.0, SE Of Honshu. Japan (211)
2016-09-17 02:31:59, -16.013, 167.430, 6.0, 36.7, Vanuatu Isls. (186)
2016-09-14 07:24:59, -9.368, 159.145, 6.0, 10.0, Solomon Isls. (193)
2016-09-14 01:58:31, 7.377, -76.156, 6.0, 17.0, Nthn Colombia (99)
2016-09-10 10:08:19, -5.582, -76.964, 6.0, 114.4, Nthn Peru (111)
2016-09-08 21:46:20, -54.615, 158.714, 6.1, 10.0, Macquarie Island Region (167)
2016-09-05 22:54:04, 54.398, 168.525, 6.1, 18.0, Komandorskiye Ostrova Region (4)
2016-09-01 16:37:57, -37.401, 179.054, 7.1, 19.0, Off E. Coast Of N. Island. N.Z. (160)


EMSC Listing

Sept 2016 Counts [EMSC]: Mag 6: 10 Mag 7: 1 Mag 8: 0 Mag 9: 0

Date/Time UTC,Latitude,Longitude,Magnitude,Depth(Km),Location
2016-09-24 21:28:40, -19.820, -178.250, 6.7, 587.0, Fiji Region
2016-09-24 21:07:12, -18.120, -175.050, 6.4, 173.0, Tonga
2016-09-23 22:53:09, 6.620, 126.570, 6.4, 52.0, Mindanao. Philippines
2016-09-23 00:14:34, 34.480, 141.650, 6.3, 10.0, Off E. Coast Of Honshu. Japan
2016-09-20 16:21:16, 30.490, 142.130, 6.1, 10.0, Izu Isls. Japan Region
2016-09-14 07:25:00, -9.360, 159.150, 6.0, 15.0, Solomon Isls.
2016-09-10 10:08:19, -5.560, -76.920, 6.1, 124.0, Nthn Peru
2016-09-08 21:46:20, -54.670, 158.710, 6.1, 15.0, Macquarie Island Region
2016-09-05 22:54:04, 54.470, 168.570, 6.2, 15.0, Komandorskiye Ostrova Region
2016-09-01 17:14:04, -37.190, 179.090, 6.0, 10.0, Off E. Coast Of N. Island. N.Z.
2016-09-01 16:37:58, -37.450, 179.240, 7.0, 26.0, Off E. Coast Of N. Island. N.Z.

August 2016

USGS Listing

Aug 2016 Counts [USGS]: Mag 6: 9 Mag 7: 2 Mag 8: 0 Mag 9: 0

Date/Time UTC,Latitude,Longitude,Magnitude,Depth(Km),Location
2016-08-24 01:36:33, 42.714, 13.171, 6.2, 10.0, Central Italy (381)
2016-08-23 19:39:44, -7.283, 122.450, 6.0, 528.1, Flores Sea (279)
2016-08-21 03:45:23, -55.277, -31.754, 6.4, 10.0, South Georgia Island Region (151)
2016-08-20 15:58:04, 40.293, 143.753, 6.0, 10.0, Off E. Coast Of Honshu. Japan (229)
2016-08-20 09:01:26, 40.356, 143.679, 6.0, 10.0, Off E. Coast Of Honshu. Japan (229)
2016-08-19 07:32:22, -55.279, -31.874, 7.4, 10.0, South Georgia Island Region (151)
2016-08-12 03:29:33, -25.139, -177.338, 6.2, 121.0, South Of Fiji Isls. (171)
2016-08-12 01:26:35, -22.495, 173.111, 7.2, 9.9, SE Of Loyalty Isls. (189)
2016-08-04 16:24:33, 24.947, 142.007, 6.3, 510.0, Volcano Isls. Japan Region (213)
2016-08-04 14:15:11, -22.394, -66.081, 6.2, 270.0, Jujuy Province. Argentina (128)
2016-08-01 07:42:50, -23.961, 82.478, 6.1, 10.0, South Indian Ocean (425)


EMSC Listing

Aug 2016 Counts [EMSC]: Mag 6: 9 Mag 7: 2 Mag 8: 0 Mag 9: 0

Date/Time UTC,Latitude,Longitude,Magnitude,Depth(Km),Location
2016-08-24 01:36:32, 42.710, 13.220, 6.2, 4.0, Central Italy
2016-08-23 19:39:44, -7.320, 122.440, 6.1, 539.0, Flores Sea
2016-08-21 03:45:23, -55.350, -31.740, 6.0, 10.0, South Georgia Island Region
2016-08-20 15:58:04, 40.390, 143.670, 6.0, 10.0, Off E. Coast Of Honshu. Japan
2016-08-20 09:01:26, 40.390, 143.670, 6.0, 10.0, Off E. Coast Of Honshu. Japan
2016-08-19 07:32:23, -55.340, -31.950, 7.5, 20.0, South Georgia Island Region
2016-08-18 18:09:44, -56.000, -123.160, 6.0, 10.0, Sthn East Pacific Rise
2016-08-12 03:29:24, -25.340, -176.890, 6.0, 60.0, South Of Fiji Isls.
2016-08-12 01:26:36, -22.490, 173.090, 7.1, 20.0, SE Of Loyalty Isls.
2016-08-04 16:24:34, 24.980, 141.990, 6.3, 524.0 Volcano Isls. Japan Region
2016-08-04 14:15:11, -22.350, -66.020, 6.2, 257.0 Jujuy. Argentina

July 2016

USGS Listing

Jul 2016 Counts [USGS]: Mag 6: 7 Mag 7: 1 Mag 8: 0 Mag 9: 0

Date/Time UTC,Latitude,Longitude,Magnitude,Depth(Km),Location
2016-07-29 21:18:25, 18.543, 145.541, 7.7, 207.6, Mariana Isls. (216)
2016-07-27 01:25:12, -44.419, -79.054, 6.0, 10.0, Off Coast Of Sthn Chile (143)
2016-07-25 19:38:44, -2.952, 147.967, 6.4, 7.3, Admiralty Isls. Region. P.N.G. (199)
2016-07-25 17:26:50, -26.098, -70.495, 6.1, 71.5, Nr. Coast Of Nthn Chile (122)
2016-07-20 15:13:17, -18.945, 169.041, 6.1, 174.0, Vanuatu Isls. (186)
2016-07-13 12:11:13, -28.032, -176.386, 6.3, 12.4, Kermadec Isls. Region (177)
2016-07-11 02:11:04, 0.581, -79.638, 6.3, 21.0, Nr. Coast Of Ecuador (105)
2016-07-10 13:41:53, -15.023, -172.855, 6.0, 10.0, Samoa Isls. Region (169)


EMSC Listing

Jul 2016 Counts [EMSC]: Mag 6: 7 Mag 7: 1 Mag 8: 0 Mag 9: 0

Date/Time UTC,Latitude,Longitude,Magnitude,Depth(Km),Location
2016-07-29 21:18:30, 18.580, 145.510, 7.7, 267.0, Pagan Reg.. N. Mariana Isls.
2016-07-27 01:25:12, -44.430, -79.190, 6.0, 10.0, Off Coast Of Aisen. Chile
2016-07-25 19:38:44, -2.970, 148.090, 6.4, 10.0, Admiralty Isls. Region. P.N.G.
2016-07-25 17:26:49, -26.130, -70.420, 6.1, 74.0, Atacama. Chile
2016-07-20 15:13:15, -18.880, 169.050, 6.1, 163.0, Vanuatu
2016-07-13 12:11:13, -28.100, -176.420, 6.3, 15.0, Kermadec Isls. Region
2016-07-13 11:56:58, -28.350, -176.410, 6.0, 15.0, Kermadec Isls. Region
2016-07-11 02:11:06, 0.600, -79.650, 6.3, 30.0, Nr. Coast Of Ecuador

June 2016

USGS Listing

Jun 2016 Counts [USGS]: Mag 6: 14 Mag 7: 0 Mag 8: 0 Mag 9: 0

Date/Time UTC,Latitude,Longitude,Magnitude,Depth(Km),Location
2016-06-26 11:17:11, 39.486, 73.325, 6.4, 15.5, Tajikistan-Xinjiang Border Reg. (719)
2016-06-21 17:12:08, -3.462, 151.853, 6.3, 365.3, New Ireland Region. P.N.G. (190)
2016-06-21 16:26:34, 22.661, -45.132, 6.1, 10.0, Nthn Mid-Atlantic Ridge (403)
2016-06-20 03:50:54, -20.207, 168.759, 6.0, 15.0, Loyalty Isls. (188)
2016-06-19 09:47:23, -20.280, 169.075, 6.3, 13.0, Vanuatu Isls. (186)
2016-06-14 13:49:22, -18.769, 168.819, 6.2, 111.0, Vanuatu Isls. (186)
2016-06-10 04:17:44, -8.685, 160.535, 6.2, 28.4, Solomon Isls. (193)
2016-06-10 03:25:22, 12.841, -87.013, 6.1, 10.0, Nr. Coast Of Nicaragua (74)
2016-06-09 04:13:08, -11.466, 116.233, 6.2, 29.8, South Of Sumbawa. Ind. (291)
2016-06-07 19:15:15, 1.313, 126.333, 6.3, 30.6, Nthn Molucca Sea (266)
2016-06-07 10:51:38, 18.412, -105.187, 6.2, 10.0, Off Coast Of Jalisco. Mexico (54)
2016-06-06 02:35:32, -30.030, -177.837, 6.1, 44.3, Kermadec Isls. NZ (178)
2016-06-05 16:25:33, -4.584, 125.621, 6.3, 428.9, Banda Sea (280)
2016-06-01 22:56:00, -2.109, 100.668, 6.6, 51.3, Sthn Sumatra. Ind. (274)


EMSC Listing

Jun 2016 Counts [EMSC]: Mag 6: 13 Mag 7: 0 Mag 8: 0 Mag 9: 0

Date/Time UTC,Latitude,Longitude,Magnitude,Depth(Km),Location
2016-06-26 11:17:10, 39.500, 73.460, 6.4, 10.0, Kyrgyzstan
2016-06-21 17:12:07, -3.460, 151.900, 6.3, 364.0, New Ireland Region. P.N.G.
2016-06-21 16:26:34, 22.580, -45.110, 6.1, 10.0, Nthn Mid-Atlantic Ridge
2016-06-19 09:47:22, -20.510, 169.480, 6.3, 10.0, Vanuatu
2016-06-14 13:49:24, -18.780, 168.780, 6.2, 128.0, Vanuatu
2016-06-10 04:17:44, -8.710, 160.500, 6.1, 34.0, Solomon Isls.
2016-06-10 03:25:22, 12.860, -87.040, 6.0, 13.0, Nr. Coast Of Nicaragua
2016-06-09 04:13:08, -11.380, 116.240, 6.1, 25.0, South Of Lombok. Ind.
2016-06-07 19:15:16, 1.350, 126.370, 6.3, 40.0, Molucca Sea
2016-06-07 10:51:37, 18.420, -105.210, 6.4, 10.0, Off Coast Of Jalisco. Mexico
2016-06-06 02:35:25, -30.320, -177.490, 6.0, 10.0, Kermadec Isls. NZ
2016-06-05 16:25:32, -4.540, 125.730, 6.3, 427.0, Banda Sea
2016-06-01 22:56:01, -2.090, 100.640, 6.4, 55.0, Kep. Mentawai Region. Ind.

May 2016

USGS Listing

May 2016 Counts [USGS]: Mag 6: 6 Mag 7: 1 Mag 8: 0 Mag 9: 0

Date/Time UTC,Latitude,Longitude,Magnitude,Depth(Km),Location
2016-05-31 05:23:47, 25.577, 122.533, 6.4, 244.1, Taiwan Region (243)
2016-05-28 09:46:59, -56.203, -26.892, 7.2, 72.6, South Sandwich Isls. Region (153)
2016-05-28 05:38:51, -22.021, -178.160, 6.6, 416.7, South Of Fiji Isls. (171)
2016-05-27 04:08:44, -20.826, -178.671, 6.4, 572.1, Fiji Isls. Region (181)
↑  2016-05-20 18:14:04, -25.560, 129.888, 6.0[was 5.9], 10.0, Nthn Territory. Australia (591)
2016-05-18 16:46:44, 0.465, -79.640, 6.8, 31.0, Nr. Coast Of Ecuador (105)
2016-05-18 07:57:05, 0.428, -79.765, 6.7, 32.4, Nr. Coast Of Ecuador (105)


EMSC Listing

May 2016 Counts [EMSC]: Mag 6: 6 Mag 7: 1 Mag 8: 0 Mag 9: 0

Date/Time UTC,Latitude,Longitude,Magnitude,Depth(Km),Location
Date/Time UTC,Latitude,Longitude,Magnitude,Depth(Km),Location
2016-05-31 05:23:47, 25.570, 122.510, 6.3, 247.0, Taiwan Region
2016-05-28 09:47:01, -56.270, -27.050, 7.2, 90.0, South Sandwich Isls. Region
2016-05-28 05:38:49, -21.980, -178.200, 6.6, 399.0, Fiji Region
2016-05-27 04:08:41, -20.770, -178.680, 6.5, 545.0, Fiji Region
2016-05-20 18:14:04, -25.590, 129.850, 6.0, 10.0, Nthn Territory. Australia
2016-05-18 16:46:43, 0.430, -79.710, 6.9, 30.0, Nr. Coast Of Ecuador
2016-05-18 07:57:04, 0.450, -79.840, 6.7, 40.0, Nr. Coast Of Ecuador

April 2016

USGS Listing

Apr 2016 Counts [USGS]: Mag 6: 15 Mag 7: 3 Mag 8: 0 Mag 9: 0

Date/Time UTC,Latitude,Longitude,Magnitude,Depth(Km),Location
2016-04-29 01:33:38, 10.270, -103.715, 6.6, 10.0, Nthn East Pacific Rise (730)
2016-04-28 19:33:24, -16.074, 167.392, 7.0, 27.1, Vanuatu Isls. (186)
2016-04-22 03:03:41, -0.328, -80.542, 6.0, 10.0, Nr. Coast Of Ecuador (105)
2016-04-20 08:35:10, 0.709, -80.009, 6.0, 10.0, Nr. Coast Of Ecuador (105)
2016-04-20 08:33:47, 0.635, -80.208, 6.2, 14.7, Nr. Coast Of Ecuador (105)
2016-04-16 23:58:37, 0.371, -79.939, 7.8, 19.1, Nr. Coast Of Ecuador (105)
2016-04-15 16:25:06, 32.782, 130.725, 7.0, 10.0, Kyushu. Japan (235)
2016-04-15 14:11:27, 13.417, -92.279, 6.1, 25.0, Off Coast Of Chiapas. Mexico (68)
2016-04-14 21:50:27, -14.522, 166.351, 6.4, 16.0, Vanuatu Isls. (186)
2016-04-14 15:03:46, 32.693, 130.732, 6.0, 5.9, Kyushu. Japan (235)
2016-04-14 12:26:36, 32.849, 130.634, 6.2, 10.0, Kyushu. Japan (235)
2016-04-14 12:17:05, -14.498, 166.480, 6.0, 10.0, Vanuatu Isls. (186)
2016-04-13 13:55:17, 23.132, 94.899, 6.9, 134.7, Myanmar-India Border Region (294)
2016-04-10 10:28:58, 36.492, 71.156, 6.6, 210.4, Afghanistan-Tajikistan Bord Reg. (717)
2016-04-07 03:32:53, -13.994, 166.571, 6.7, 26.7 Vanuatu Isls. (186)
↑  2016-04-06 14:45:30, -8.197, 107.419, 6.1was 6.0, 35.3 Java. Ind. (277)
2016-04-06 06:58:48, -14.082, 166.598, 6.7, 24.0 Vanuatu Isls. (186)
2016-04-03 08:23:53, -14.351, 166.820, 6.9, 35.0 Vanuatu Isls. (186)
2016-04-01 19:24:55, -3.409, 144.966, 6.2, 5.4 Nr. N Coast Of New Guinea. Png. (200)
2016-04-01 02:39:07, 33.373, 136.412, 6.0, 10.0 Nr. S. Coast Of Western Honshu (233)


Downgraded earthquakes in April
↓  2016-04-30 08:35:42, -16.305, 167.187, 5.8[was 6.0], 4.7, Vanuatu Isls. (186)
↓  2016-04-02 05:50:00, 57.025, -157.896, 6.2, 17.9 Alaska Peninsula (12)


EMSC Listing

Apr 2016 Counts [EMSC]: Mag 6: 19 Mag 7: 5 Mag 8: 0 Mag 9: 0

Date/Time UTC,Latitude,Longitude,Magnitude,Depth(Km),Location
2016-04-29 01:33:37, 10.210, -103.820, 6.6, 10.0, Nthn East Pacific Rise
2016-04-28 19:33:24, -16.040, 167.480, 7.0, 30.0, Vanuatu
2016-04-27 12:51:23, 14.590, -92.930, 6.0, 50.0, Offshore Chiapas. Mexico
2016-04-25 07:07:09, 14.480, -93.040, 6.0, 25.0, Offshore Chiapas. Mexico
2016-04-22 03:03:41, -0.250, -80.480, 6.1, 10.0, Nr. Coast Of Ecuador
2016-04-20 08:35:10, 0.710, -80.010, 6.0, 10.0, Nr. Coast Of Ecuador
2016-04-20 08:33:46, 0.670, -80.170, 6.1, 15.0, Nr. Coast Of Ecuador
2016-04-19 05:25:41, -55.770, -27.430, 6.3, 20.0, South Sandwich Isls. Region
2016-04-16 23:58:37, 0.400, -79.910, 7.8, 20.0, Nr. Coast Of Ecuador
2016-04-15 16:25:07, 32.850, 130.570, 7.0, 10.0, Kyushu. Japan
2016-04-15 14:11:30, 13.540, -92.200, 6.2, 45.0, Offshore Guatemala
2016-04-14 21:50:27, -14.500, 166.430, 6.3, 20.0, Vanuatu
2016-04-14 15:03:48, 32.660, 130.840, 6.0, 10.0, Kyushu. Japan
2016-04-14 12:26:36, 32.820, 130.630, 6.1, 15.0, Kyushu. Japan
2016-04-13 13:55:17, 23.120, 94.890, 6.9, 131.0, Myanmar
2016-04-10 10:28:58, 36.510, 71.260, 6.6, 221.0, Hindu Kush Region. Afghanistan
2016-04-07 03:32:57, -13.920, 166.620, 6.8, 47.0, Vanuatu
2016-04-06 14:45:34, -8.090, 107.530, 6.0, 70.0, Java. Ind.
2016-04-06 07:57:37, -14.190, 166.650, 6.0, 30.0, Vanuatu
2016-04-06 06:58:49, -14.110, 166.730, 6.7, 30.0, Vanuatu
2016-04-03 08:23:54, -14.320, 166.850, 6.9, 40.0, Vanuatu
2016-04-02 05:50:00, 57.250, -158.020, 6.2, 10.0, Alaska Peninsula
2016-04-01 19:24:56, -3.430, 144.980, 6.1, 10.0, Nr. N Coast Of New Guinea. Png.
2016-04-01 02:39:05, 33.380, 136.340, 6.1, 2.0, Nr. S. Coast Of Western Honshu

March 2016

USGS Listing

Mar 2016 Counts [USGS]: Mag 6: 4 Mag 7: 1 Mag 8: 0 Mag 9: 0

Date/Time UTC,Latitude,Longitude,Magnitude,Depth(Km),Location
2016-03-20 22:50:20, 54.332, 162.798, 6.4, 31.3, Nr. E. Coast Of Kamchatka (218)
2016-03-19 11:26:34, 17.995, -60.697, 6.0, 32.0, Leeward Isls. (92)
2016-03-19 01:35:12, 51.512, -174.234, 6.0, 17.0, Andreanof Isls. Aleutian Is. (7)
2016-03-12 18:06:46, 51.623, -174.004, 6.3, 22.3, Andreanof Isls. Aleutian Is. (7)
2016-03-02 12:49:48, -4.908, 94.275, 7.8, 24.0, SW Of Sumatra. Ind. (273)


EMSC Listing

Mar 2016 Counts [EMSC]: Mag 6: 5 Mag 7: 1 Mag 8: 0 Mag 9: 0

Date/Time UTC,Latitude,Longitude,Magnitude,Depth(Km),Location
2016-03-20 22:50:18, 54.330, 162.880, 6.4, 15.0, Nr. E. Coast Of Kamchatka
2016-03-19 11:26:30, 18.050, -60.700, 6.0, 20.0, Antigua And Barbuda Region
2016-03-19 01:35:10, 51.520, -174.070, 6.1, 10.0, Andreanof Isls. Aleutian Is.
2016-03-12 18:06:44, 51.600, -173.840, 6.4, 15.0, Andreanof Isls. Aleutian Is.
2016-03-08 05:36:27, -15.200, -173.440, 6.0, 30.0, Tonga
2016-03-02 12:49:46, -4.830, 94.230, 7.9, 10.0, SW Of Sumatra. Ind.

February 2016

USGS Listing

Feb 2016 Counts [USGS]: Mag 6: 6 Mag 7: 0 Mag 8: 0 Mag 9: 0

Date/Time UTC,Latitude,Longitude,Magnitude,Depth(Km),Location
2016-02-16 23:48:35, -55.820, -125.179, 6.0, 10.0, Sthn East Pacific Rise (684)
↑  2016-02-15 15:02:32, -20.9997, -175.4739, 6.0, 10, Tonga Islands (173)
2016-02-12 10:02:23, -9.744, 119.451, 6.3, 28.0, Sumba Region. Ind. (287)
2016-02-10 00:33:05, -30.634, -71.619, 6.3, 31.5, Nr. Coast Of Central Chile (135)
2016-02-08 16:19:13, -6.621, 154.707, 6.4, 31.6, Solomon Isls. (193)
2016-02-05 19:57:27, 22.871, 120.667, 6.4, 23.0, Taiwan (244)
2016-02-01 19:00:45, -30.920, 179.985, 6.2, 382.4, Kermadec Isls. Region (177)


Downgraded earthquakes in February
↓  2016-02-15 19:28:04, -49.066, 164.456, 6.2, 10.0 Auckland Isls. N.Z. Region (166)


EMSC Listing

Feb 2016 Counts [EMSC]: Mag 6: 9 Mag 7: 0 Mag 8: 0 Mag 9: 0

Date/Time UTC,Latitude,Longitude,Magnitude,Depth(Km),Location
2016-02-27 21:29:42, -51.810, 139.580, 6.1, 10.0, Western Indian-Antarctic Ridge
2016-02-16 23:48:35, -55.930, -124.830, 6.1, 20.0, Sthn East Pacific Rise
2016-02-15 19:28:04, -49.070, 164.460, 6.2, 10.0, Auckland Isls. N.Z. Region
2016-02-15 15:02:32, -21.140, -175.470, 6.0, 10.0, Tonga
2016-02-12 10:02:25, -9.580, 119.500, 6.3, 40.0, Sumba Region. Ind.
2016-02-10 00:33:05, -30.580, -71.580, 6.3, 30.0, Coquimbo. Chile
2016-02-08 16:19:14, -6.660, 154.720, 6.5, 40.0, Bougainville Region. P.N.G.
2016-02-05 19:57:27, 22.930, 120.540, 6.4, 17.0, Taiwan
2016-02-01 19:00:42, -30.860, 180.000, 6.2, 354.0, Kermadec Isls. Region

January 2016

USGS Listing

Jan 2016 Counts [USGS]: Mag 6: 10 Mag 7: 2 Mag 8: 0 Mag 9: 0

Date/Time UTC,Latitude,Longitude,Magnitude,Depth(Km),Location
2016-01-31 17:39:00, -63.286, 169.152, 6.0, 10.0 Balleny Isls. Region (702)
2016-01-30 03:25:10, 54.007, 158.506, 7.2, 160.9, Kamchatka Peninsula. Russia (217)
2016-01-25 04:22:02, 35.651, -3.675, 6.3, 12.0, Strait Of Gibraltar (385)
2016-01-24 10:30:30, 59.658, -153.452, 7.1, 127.8, Sthn Alaska (2)
2016-01-21 18:06:59, 18.841, -106.953, 6.6, 10.0, Off Coast Of Jalisco. Mexico (54)
2016-01-18 18:24:19, -21.470, 176.211, 6.0, 14.8, South Of Fiji Isls. (171)
2016-01-14 03:25:34, 41.951, 142.720, 6.7, 51.3, Hokkaido. Japan Region (224)
2016-01-14 03:25:28, -19.826, -63.285, 6.1, 582.4, Sthn Bolivia (125)
2016-01-11 17:08:03, 44.464, 141.076, 6.2, 239.8, Hokkaido. Japan Region (224)
2016-01-11 16:38:07, 3.863, 126.866, 6.5, 20.8, Talaud Isls. Ind. (263)
2016-01-03 23:05:22, 24.833, 93.655, 6.7, 55.0, Myanmar-India Border Region (294)
2016-01-01 02:00:39, -50.575, 139.446, 6.3, 10.0, Western Indian-Antarctic Ridge (742)


EMSC Listing

Jan 2016 Counts [EMSC]: Mag 6: 9 Mag 7: 2 Mag 8: 0 Mag 9: 0

Date/Time UTC,Latitude,Longitude,Magnitude,Depth(Km),Location
2016-01-31 17:39:04, -63.360, 169.560, 6.0, 40.0 Balleny Isls. Region
2016-01-30 03:25:09, 54.080, 158.520, 7.0, 158.0, Kamchatka Peninsula. Russia
2016-01-25 04:22:03, 35.730, -3.740, 6.3, 15.0 Strait Of Gibraltar
2016-01-24 10:30:30, 59.660, -153.450, 7.1, 128.0, Sthn Alaska
2016-01-21 18:06:58, 18.820, -107.030, 6.5, 10.0, Off Coast Of Jalisco, Mexico
2016-01-14 03:25:34, 42.080, 142.620, 6.7, 60.0, Hokkaido. Japan Region
2016-01-14 03:25:27, -19.770, -63.350, 6.1, 576.0, Santa Cruz. Bolivia
2016-01-11 17:08:00, 44.570, 141.220, 6.3, 200.0, Hokkaido. Japan Region
2016-01-11 16:38:09, 3.870, 126.970, 6.4, 40.0, Kepulauan Talaud. Ind.
2016-01-03 23:05:20, 24.830, 93.610, 6.8, 40.0, Manipur. India Region
2016-01-01 02:00:39, -50.580, 139.430, 6.3, 10.0, Western Indian-Antarctic Ridge


Link to 2015